TimeEST,TemperatureF,Dew PointF,Humidity,Sea Level PressureIn,VisibilityMPH,Wind Direction,Wind SpeedMPH,Gust SpeedMPH,PrecipitationIn,Events,Conditions,WindDirDegrees,DateUTC
12:53 AM,27.0,7.0,43,29.97,10.0,West,11.5,20.7,N/A,,Mostly Cloudy,280,2013-02-05 05:53:00
1:53 AM,27.0,7.0,43,29.98,10.0,WNW,10.4,19.6,N/A,,Overcast,290,2013-02-05 06:53:00
2:53 AM,28.0,9.0,45,29.98,10.0,WNW,9.2,-,N/A,,Overcast,300,2013-02-05 07:53:00
3:53 AM,28.0,10.0,47,29.99,10.0,WNW,8.1,-,N/A,,Overcast,300,2013-02-05 08:53:00
4:53 AM,28.0,12.0,51,29.98,10.0,NNW,5.8,-,N/A,,Overcast,330,2013-02-05 09:53:00
5:53 AM,27.0,14.0,58,29.98,10.0,North,6.9,-,N/A,,Overcast,10,2013-02-05 10:53:00
7:53 AM,27.0,15.1,61,30.00,10.0,NNE,5.8,-,0.00,Snow,Light Snow,30,2013-02-05 12:53:00
8:53 AM,28.0,17.1,63,30.01,10.0,NNE,6.9,-,0.00,,Overcast,20,2013-02-05 13:53:00
10:07 AM,28.4,19.4,69,30.02,6.0,NNE,8.1,-,0.00,Snow,Light Snow,30,2013-02-05 15:07:00
10:53 AM,28.0,19.9,72,30.02,4.0,NNE,9.2,-,0.00,Snow,Light Snow,20,2013-02-05 15:53:00
11:53 AM,28.0,21.0,75,30.00,8.0,NNE,9.2,-,0.01,,Overcast,20,2013-02-05 16:53:00
12:53 PM,28.0,21.9,78,29.99,4.0,NNE,11.5,-,0.00,Snow,Light Snow,30,2013-02-05 17:53:00
1:53 PM,28.9,24.1,82,29.97,3.0,NNE,12.7,-,0.00,Snow,Light Snow,30,2013-02-05 18:53:00
2:53 PM,30.0,25.0,82,29.97,9.0,ENE,11.5,-,0.00,,Overcast,60,2013-02-05 19:53:00
3:53 PM,30.9,25.0,79,29.94,6.0,ENE,10.4,-,0.00,Snow,Light Snow,60,2013-02-05 20:53:00
4:06 PM,30.2,24.8,80,29.93,7.0,ENE,9.2,-,0.00,,Overcast,70,2013-02-05 21:06:00
4:53 PM,32.0,26.1,79,29.93,9.0,East,6.9,-,0.00,,Overcast,80,2013-02-05 21:53:00
5:53 PM,32.0,28.0,85,29.92,2.5,ENE,10.4,-,0.00,Snow,Light Snow,70,2013-02-05 22:53:00
6:02 PM,32.0,28.4,87,29.92,3.0,ENE,8.1,-,0.00,Snow,Light Snow,60,2013-02-05 23:02:00
6:53 PM,32.0,30.0,92,29.93,1.8,ENE,5.8,-,0.00,Snow,Light Snow,70,2013-02-05 23:53:00
7:42 PM,33.8,30.2,87,29.93,5.0,ENE,4.6,-,0.00,Snow,Light Snow,70,2013-02-06 00:42:00
7:53 PM,33.1,30.9,92,29.93,4.0,ENE,5.8,-,0.01,Snow,Light Snow,60,2013-02-06 00:53:00
8:53 PM,34.0,32.0,92,29.92,6.0,East,5.8,-,0.00,,Overcast,80,2013-02-06 01:53:00
9:53 PM,35.1,33.1,92,29.91,10.0,East,4.6,-,0.00,,Overcast,90,2013-02-06 02:53:00
10:20 PM,35.6,33.8,93,29.89,10.0,ENE,4.6,-,N/A,,Overcast,70,2013-02-06 03:20:00
11:53 PM,34.0,32.0,92,29.90,9.0,NNW,3.5,-,N/A,,Overcast,340,2013-02-06 04:53:00